Covington, Indiana
Current Conditions -  °F | °C
As of 11:15 PM on Wednesday 17 Dec 2014 (Local Time) from KDNV Reporting Station
Overcast Overcast  
Wind Chill: 19°   Ceiling: 2100
Heat Index: 25°   Visibility: 10mi
Dew Point: 18°   Wind: 5mph
Humidity: 76%   Direction: 300°WNW
Pressure: 30.27"   Gusts: NA
Location:  40.14°N, 87.39°W
Report Text: KDNV 180415Z AUTO 30004KT 10SM OVC021 M04/M08 A3027 RMK AO2 T10391076
Loading
Personal Weather Stations






























Interactive Weather Map New forecast layout! Learn more

10-Day Weather Forecast

Advertisements
Track Severe Weather on mobile